AMX762 SKBO-MMMX
Flight info
| Callsign | AMX762 |
|---|---|
| Flight time | 4h 31m |
| Altitude | 38000 |
| Route | TOBKI1S VASIL UL423 PULOX DCT SIGUN UM549 TBG UM419 AROVI/N0479F390 UM419 ANSON/N0478F400 UM419 ASOKU DCT UGATA UL655 AVALI UT169 UMAVO UT101 ENAGA ENAGA3A |
| Aircraft | B772/H-SDE2E3FGHIJ5LORVWXY/LB1D1 |
Departure
| Time | 2026-05-05 09:52 |
|---|---|
| Airport | El Dorado International Airport (SKBO) |
Arrival
| Time | 2026-05-05 14:24 |
|---|---|
| Airport | Mexico City Benito Juárez International Airport (MMMX) |
| Time | Latitude | Longitude | Altitude | Speed | Heading |
|---|---|---|---|---|---|
| 2026-05-05 09:45 | 4.70508 | -74.15899 | 8370 ft | 0 kts | 16° |
| 2026-05-05 09:45 | 4.70509 | -74.15899 | 8370 ft | 1 kts | 16° |
| 2026-05-05 09:45 | 4.70520 | -74.15899 | 8369 ft | 4 kts | 5° |
| 2026-05-05 09:45 | 4.70525 | -74.15898 | 8369 ft | 1 kts | 5° |
| 2026-05-05 09:46 | 4.70538 | -74.15898 | 8369 ft | 0 kts | 0° |
| 2026-05-05 09:46 | 4.70542 | -74.15900 | 8369 ft | 2 kts | 345° |
| 2026-05-05 09:46 | 4.70573 | -74.15932 | 8370 ft | 15 kts | 314° |
| 2026-05-05 09:46 | 4.70662 | -74.16048 | 8370 ft | 21 kts | 304° |
| 2026-05-05 09:47 | 4.70738 | -74.16160 | 8370 ft | 18 kts | 309° |
| 2026-05-05 09:47 | 4.70813 | -74.16250 | 8369 ft | 16 kts | 308° |
| 2026-05-05 09:47 | 4.70873 | -74.16329 | 8369 ft | 13 kts | 307° |
| 2026-05-05 09:47 | 4.70923 | -74.16396 | 8369 ft | 11 kts | 306° |
| 2026-05-05 09:48 | 4.70962 | -74.16451 | 8369 ft | 9 kts | 306° |
| 2026-05-05 09:48 | 4.70994 | -74.16493 | 8369 ft | 7 kts | 306° |
| 2026-05-05 09:48 | 4.71017 | -74.16526 | 8369 ft | 5 kts | 306° |
| 2026-05-05 09:48 | 4.71035 | -74.16550 | 8369 ft | 4 kts | 306° |
| 2026-05-05 09:49 | 4.71052 | -74.16574 | 8369 ft | 6 kts | 306° |
| 2026-05-05 09:49 | 4.71085 | -74.16617 | 8369 ft | 10 kts | 308° |
| 2026-05-05 09:49 | 4.71137 | -74.16684 | 8369 ft | 14 kts | 307° |
| 2026-05-05 09:49 | 4.71185 | -74.16761 | 8369 ft | 9 kts | 285° |
| 2026-05-05 09:50 | 4.71167 | -74.16807 | 8368 ft | 9 kts | 231° |
| 2026-05-05 09:50 | 4.71126 | -74.16843 | 8368 ft | 7 kts | 215° |
| 2026-05-05 09:50 | 4.71088 | -74.16864 | 8367 ft | 5 kts | 207° |
| 2026-05-05 09:50 | 4.71061 | -74.16876 | 8367 ft | 3 kts | 200° |
| 2026-05-05 09:51 | 4.71046 | -74.16877 | 8368 ft | 2 kts | 178° |
| 2026-05-05 09:51 | 4.71032 | -74.16870 | 8368 ft | 3 kts | 146° |
| 2026-05-05 09:51 | 4.70967 | -74.16786 | 8368 ft | 43 kts | 127° |
| 2026-05-05 09:51 | 4.70644 | -74.16361 | 8370 ft | 108 kts | 127° |
| 2026-05-05 09:52 | 4.70073 | -74.15607 | 8370 ft | 162 kts | 127° |
| 2026-05-05 09:52 | 4.69296 | -74.14580 | 8375 ft | 206 kts | 126° |
| 2026-05-05 09:52 | 4.68403 | -74.13389 | 8848 ft | 213 kts | 126° |
| 2026-05-05 09:52 | 4.67567 | -74.12225 | 9762 ft | 202 kts | 124° |
| 2026-05-05 09:53 | 4.66465 | -74.11258 | 9820 ft | 235 kts | 158° |
| 2026-05-05 09:53 | 4.64808 | -74.11072 | 10286 ft | 247 kts | 189° |
| 2026-05-05 09:53 | 4.63240 | -74.11761 | 10712 ft | 248 kts | 217° |
| 2026-05-05 09:53 | 4.62183 | -74.13132 | 10928 ft | 254 kts | 246° |
| 2026-05-05 09:54 | 4.61912 | -74.14878 | 11145 ft | 258 kts | 274° |
| 2026-05-05 09:54 | 4.62093 | -74.16650 | 11489 ft | 253 kts | 274° |
| 2026-05-05 09:54 | 4.62161 | -74.18406 | 11791 ft | 252 kts | 267° |
| 2026-05-05 09:54 | 4.61903 | -74.20137 | 12010 ft | 251 kts | 251° |
| 2026-05-05 09:55 | 4.61466 | -74.21838 | 12226 ft | 253 kts | 255° |
| 2026-05-05 09:55 | 4.61041 | -74.23551 | 12453 ft | 253 kts | 255° |
| 2026-05-05 09:55 | 4.60676 | -74.25276 | 12694 ft | 254 kts | 257° |
| 2026-05-05 09:55 | 4.60358 | -74.27020 | 12908 ft | 255 kts | 259° |
| 2026-05-05 09:56 | 4.60239 | -74.28805 | 13077 ft | 258 kts | 265° |
| 2026-05-05 09:56 | 4.60136 | -74.30604 | 13288 ft | 259 kts | 264° |
| 2026-05-05 09:56 | 4.60025 | -74.32405 | 13481 ft | 259 kts | 265° |
| 2026-05-05 09:56 | 4.59928 | -74.34220 | 13570 ft | 264 kts | 265° |
| 2026-05-05 09:57 | 4.59828 | -74.36102 | 13636 ft | 280 kts | 265° |
| 2026-05-05 09:57 | 4.59719 | -74.38081 | 14204 ft | 287 kts | 265° |
| 2026-05-05 09:57 | 4.59618 | -74.40088 | 14898 ft | 291 kts | 269° |
| 2026-05-05 09:57 | 4.59901 | -74.42075 | 15384 ft | 294 kts | 285° |
| 2026-05-05 09:58 | 4.60504 | -74.44062 | 15670 ft | 303 kts | 289° |
| 2026-05-05 09:58 | 4.61172 | -74.46108 | 15918 ft | 315 kts | 287° |
| 2026-05-05 09:58 | 4.61791 | -74.48262 | 16180 ft | 328 kts | 285° |
| 2026-05-05 09:58 | 4.62403 | -74.50509 | 16460 ft | 341 kts | 285° |
| 2026-05-05 09:59 | 4.63064 | -74.52843 | 16772 ft | 354 kts | 287° |
| 2026-05-05 09:59 | 4.63771 | -74.55265 | 17091 ft | 369 kts | 287° |
| 2026-05-05 09:59 | 4.64498 | -74.57783 | 17401 ft | 384 kts | 286° |
| 2026-05-05 09:59 | 4.65422 | -74.60347 | 17704 ft | 397 kts | 299° |
| 2026-05-05 10:00 | 4.67027 | -74.62641 | 18022 ft | 409 kts | 315° |
| 2026-05-05 10:00 | 4.69211 | -74.64462 | 18333 ft | 419 kts | 330° |
| 2026-05-05 10:00 | 4.71869 | -74.65725 | 18605 ft | 429 kts | 344° |
| 2026-05-05 10:00 | 4.74809 | -74.66335 | 18980 ft | 435 kts | 356° |
| 2026-05-05 10:01 | 4.77843 | -74.66535 | 19479 ft | 439 kts | 359° |
| 2026-05-05 10:01 | 4.80924 | -74.66668 | 19961 ft | 445 kts | 358° |
| 2026-05-05 10:01 | 4.84003 | -74.67182 | 20467 ft | 452 kts | 345° |
| 2026-05-05 10:01 | 4.86934 | -74.68363 | 20956 ft | 459 kts | 333° |
| 2026-05-05 10:02 | 4.88737 | -74.69495 | 21280 ft | 463 kts | 325° |
| 2026-05-05 10:02 | 4.91208 | -74.71590 | 21796 ft | 469 kts | 318° |
| 2026-05-05 10:02 | 4.94145 | -74.74808 | 22480 ft | 475 kts | 307° |
| 2026-05-05 10:02 | 4.95863 | -74.77658 | 22994 ft | 480 kts | 297° |
| 2026-05-05 10:03 | 4.97219 | -74.80734 | 23528 ft | 484 kts | 294° |
| 2026-05-05 10:03 | 4.98072 | -74.82805 | 23819 ft | 485 kts | 294° |
| 2026-05-05 10:03 | 4.99451 | -74.85898 | 24257 ft | 487 kts | 297° |
| 2026-05-05 10:03 | 5.01017 | -74.88916 | 24713 ft | 488 kts | 299° |
| 2026-05-05 10:04 | 5.02587 | -74.91944 | 25138 ft | 491 kts | 297° |
| 2026-05-05 10:04 | 5.04056 | -74.95045 | 25598 ft | 493 kts | 296° |
| 2026-05-05 10:04 | 5.05510 | -74.98171 | 26068 ft | 494 kts | 297° |
| 2026-05-05 10:04 | 5.07028 | -75.01269 | 26536 ft | 495 kts | 298° |
| 2026-05-05 10:05 | 5.08576 | -75.04361 | 27028 ft | 496 kts | 297° |
| 2026-05-05 10:05 | 5.10092 | -75.07474 | 27516 ft | 496 kts | 296° |
| 2026-05-05 10:05 | 5.11565 | -75.10558 | 28008 ft | 497 kts | 296° |
| 2026-05-05 10:05 | 5.13075 | -75.13676 | 28515 ft | 497 kts | 297° |
| 2026-05-05 10:06 | 5.14603 | -75.16781 | 29036 ft | 496 kts | 298° |
| 2026-05-05 10:06 | 5.16420 | -75.19715 | 29645 ft | 494 kts | 309° |
| 2026-05-05 10:06 | 5.18658 | -75.22331 | 30184 ft | 493 kts | 313° |
| 2026-05-05 10:06 | 5.20956 | -75.24859 | 30634 ft | 493 kts | 313° |
| 2026-05-05 10:07 | 5.23264 | -75.27420 | 31091 ft | 492 kts | 312° |
| 2026-05-05 10:07 | 5.25525 | -75.30010 | 31528 ft | 491 kts | 311° |
| 2026-05-05 10:07 | 5.27772 | -75.32584 | 31999 ft | 490 kts | 312° |
| 2026-05-05 10:07 | 5.30037 | -75.35137 | 32459 ft | 489 kts | 313° |
| 2026-05-05 10:08 | 5.32270 | -75.37641 | 32908 ft | 487 kts | 312° |
| 2026-05-05 10:08 | 5.34515 | -75.40180 | 33370 ft | 484 kts | 312° |
| 2026-05-05 10:08 | 5.36742 | -75.42713 | 33828 ft | 482 kts | 312° |
| 2026-05-05 10:08 | 5.38953 | -75.45220 | 34263 ft | 479 kts | 312° |
| 2026-05-05 10:09 | 5.41166 | -75.47716 | 34688 ft | 476 kts | 312° |
| 2026-05-05 10:09 | 5.43357 | -75.50191 | 35108 ft | 473 kts | 312° |
| 2026-05-05 10:09 | 5.45527 | -75.52652 | 35539 ft | 468 kts | 312° |
| 2026-05-05 10:09 | 5.47677 | -75.55088 | 35978 ft | 464 kts | 312° |
| 2026-05-05 10:10 | 5.49805 | -75.57496 | 36408 ft | 458 kts | 312° |
| 2026-05-05 10:10 | 5.51906 | -75.59873 | 36850 ft | 452 kts | 312° |
| 2026-05-05 10:10 | 5.53979 | -75.62221 | 37299 ft | 445 kts | 312° |
| 2026-05-05 10:10 | 5.56013 | -75.64527 | 37736 ft | 437 kts | 312° |
| 2026-05-05 10:11 | 5.58012 | -75.66791 | 38172 ft | 428 kts | 312° |
| 2026-05-05 10:11 | 5.59966 | -75.69004 | 38582 ft | 418 kts | 312° |
| 2026-05-05 10:11 | 5.61869 | -75.71159 | 38954 ft | 407 kts | 312° |
| 2026-05-05 10:11 | 5.63701 | -75.73236 | 39289 ft | 395 kts | 312° |
| 2026-05-05 10:12 | 5.65535 | -75.75315 | 39167 ft | 398 kts | 312° |
| 2026-05-05 10:12 | 5.67399 | -75.77427 | 38720 ft | 412 kts | 312° |
| 2026-05-05 10:12 | 5.69336 | -75.79620 | 38313 ft | 422 kts | 312° |
| 2026-05-05 10:12 | 5.71272 | -75.81827 | 38383 ft | 422 kts | 309° |
| 2026-05-05 10:13 | 5.75028 | -75.86361 | 38441 ft | 422 kts | 311° |
| 2026-05-05 10:13 | 5.76973 | -75.88637 | 37981 ft | 436 kts | 310° |
| 2026-05-05 10:13 | 5.78923 | -75.90995 | 37554 ft | 450 kts | 310° |
| 2026-05-05 10:14 | 5.82969 | -75.95893 | 37483 ft | 458 kts | 310° |
| 2026-05-05 10:14 | 5.87094 | -76.00826 | 37628 ft | 464 kts | 310° |
| 2026-05-05 10:15 | 5.91255 | -76.05844 | 37699 ft | 471 kts | 310° |
| 2026-05-05 10:15 | 5.95494 | -76.10932 | 37740 ft | 478 kts | 310° |
| 2026-05-05 10:16 | 5.99802 | -76.16119 | 37798 ft | 487 kts | 310° |
| 2026-05-05 10:16 | 6.04125 | -76.21316 | 37832 ft | 488 kts | 310° |
| 2026-05-05 10:17 | 6.08480 | -76.26560 | 37841 ft | 488 kts | 310° |
| 2026-05-05 10:17 | 6.12839 | -76.31808 | 37836 ft | 489 kts | 310° |
| 2026-05-05 10:18 | 6.17170 | -76.37022 | 37970 ft | 488 kts | 310° |
| 2026-05-05 10:18 | 6.19344 | -76.39640 | 38099 ft | 489 kts | 310° |
| 2026-05-05 10:18 | 6.21527 | -76.42271 | 38227 ft | 489 kts | 310° |
| 2026-05-05 10:19 | 6.23715 | -76.44906 | 38358 ft | 490 kts | 310° |
| 2026-05-05 10:19 | 6.25900 | -76.47538 | 38482 ft | 490 kts | 310° |
| 2026-05-05 10:19 | 6.28082 | -76.50168 | 38604 ft | 490 kts | 310° |
| 2026-05-05 10:19 | 6.30263 | -76.52798 | 38703 ft | 489 kts | 310° |
| 2026-05-05 10:20 | 6.32441 | -76.55422 | 38806 ft | 488 kts | 310° |
| 2026-05-05 10:20 | 6.34616 | -76.58045 | 38905 ft | 488 kts | 310° |
| 2026-05-05 10:20 | 6.36787 | -76.60662 | 39008 ft | 487 kts | 310° |
| 2026-05-05 10:20 | 6.38952 | -76.63276 | 39123 ft | 486 kts | 310° |
| 2026-05-05 10:21 | 6.43248 | -76.68452 | 39328 ft | 485 kts | 310° |
| 2026-05-05 10:21 | 6.47551 | -76.73649 | 39544 ft | 483 kts | 310° |
| 2026-05-05 10:22 | 6.49699 | -76.76240 | 39657 ft | 482 kts | 310° |
| 2026-05-05 10:22 | 6.51844 | -76.78828 | 39755 ft | 481 kts | 310° |
| 2026-05-05 10:22 | 6.53973 | -76.81399 | 39863 ft | 480 kts | 310° |
| 2026-05-05 10:22 | 6.56117 | -76.83988 | 39913 ft | 480 kts | 310° |
| 2026-05-05 10:23 | 6.60385 | -76.89141 | 39908 ft | 478 kts | 310° |
| 2026-05-05 10:23 | 6.64656 | -76.94302 | 39901 ft | 479 kts | 310° |
| 2026-05-05 10:24 | 6.68887 | -76.99412 | 39887 ft | 478 kts | 310° |
| 2026-05-05 10:24 | 6.73140 | -77.04556 | 39905 ft | 477 kts | 310° |
| 2026-05-05 10:25 | 6.77389 | -77.09691 | 39901 ft | 477 kts | 310° |
| 2026-05-05 10:25 | 6.81628 | -77.14819 | 39901 ft | 476 kts | 310° |
| 2026-05-05 10:26 | 6.85862 | -77.19941 | 39899 ft | 476 kts | 309° |
| 2026-05-05 10:26 | 6.90094 | -77.25063 | 39898 ft | 475 kts | 309° |
| 2026-05-05 10:27 | 6.94296 | -77.30151 | 39904 ft | 474 kts | 309° |
| 2026-05-05 10:27 | 6.98525 | -77.35270 | 39903 ft | 475 kts | 309° |
| 2026-05-05 10:28 | 7.02752 | -77.40391 | 39905 ft | 474 kts | 309° |
| 2026-05-05 10:28 | 7.06971 | -77.45502 | 39902 ft | 475 kts | 309° |
| 2026-05-05 10:29 | 7.11169 | -77.50591 | 39906 ft | 475 kts | 309° |
| 2026-05-05 10:29 | 7.15399 | -77.55720 | 39913 ft | 476 kts | 309° |
| 2026-05-05 10:30 | 7.19637 | -77.60858 | 39916 ft | 476 kts | 309° |
| 2026-05-05 10:30 | 7.23860 | -77.65985 | 39908 ft | 476 kts | 309° |
| 2026-05-05 10:31 | 7.28088 | -77.71113 | 39917 ft | 476 kts | 309° |
| 2026-05-05 10:31 | 7.32294 | -77.76221 | 39915 ft | 476 kts | 309° |
| 2026-05-05 10:32 | 7.36518 | -77.81350 | 39921 ft | 475 kts | 309° |
| 2026-05-05 10:32 | 7.40722 | -77.86465 | 39914 ft | 474 kts | 309° |
| 2026-05-05 10:33 | 7.44912 | -77.91599 | 39917 ft | 474 kts | 309° |
| 2026-05-05 10:33 | 7.49114 | -77.96731 | 39910 ft | 474 kts | 309° |
| 2026-05-05 10:34 | 7.53312 | -78.01873 | 39913 ft | 474 kts | 309° |
| 2026-05-05 10:34 | 7.57509 | -78.07007 | 39912 ft | 474 kts | 309° |
| 2026-05-05 10:35 | 7.61669 | -78.12101 | 39911 ft | 474 kts | 309° |
| 2026-05-05 10:35 | 7.65860 | -78.17238 | 39902 ft | 474 kts | 309° |
| 2026-05-05 10:36 | 7.70049 | -78.22364 | 39899 ft | 473 kts | 309° |
| 2026-05-05 10:36 | 7.74234 | -78.27497 | 39896 ft | 473 kts | 309° |
| 2026-05-05 10:37 | 7.78416 | -78.32623 | 39895 ft | 473 kts | 309° |
| 2026-05-05 10:37 | 7.82596 | -78.37750 | 39897 ft | 473 kts | 309° |
| 2026-05-05 10:38 | 7.86771 | -78.42871 | 39897 ft | 472 kts | 309° |
| 2026-05-05 10:38 | 7.90948 | -78.47998 | 39892 ft | 473 kts | 309° |
| 2026-05-05 10:39 | 7.95104 | -78.53101 | 39880 ft | 473 kts | 309° |
| 2026-05-05 10:39 | 7.99282 | -78.58231 | 39887 ft | 473 kts | 309° |
| 2026-05-05 10:40 | 8.03463 | -78.63370 | 39892 ft | 474 kts | 309° |
| 2026-05-05 10:40 | 8.07658 | -78.68523 | 39895 ft | 475 kts | 309° |
| 2026-05-05 10:41 | 8.11848 | -78.73679 | 39890 ft | 476 kts | 309° |
| 2026-05-05 10:41 | 8.16024 | -78.78810 | 39886 ft | 476 kts | 309° |
| 2026-05-05 10:42 | 8.22331 | -78.86573 | 39882 ft | 477 kts | 309° |
| 2026-05-05 10:43 | 8.26539 | -78.91755 | 39878 ft | 477 kts | 309° |
| 2026-05-05 10:43 | 8.30759 | -78.96951 | 39882 ft | 478 kts | 309° |
| 2026-05-05 10:44 | 8.34972 | -79.02140 | 39881 ft | 478 kts | 309° |
| 2026-05-05 10:44 | 8.39204 | -79.07357 | 39876 ft | 479 kts | 309° |
| 2026-05-05 10:45 | 8.43431 | -79.12570 | 39880 ft | 480 kts | 309° |
| 2026-05-05 10:45 | 8.47626 | -79.17741 | 39880 ft | 478 kts | 309° |
| 2026-05-05 10:46 | 8.51850 | -79.22955 | 39872 ft | 479 kts | 309° |
| 2026-05-05 10:46 | 8.56070 | -79.28164 | 39877 ft | 479 kts | 309° |
| 2026-05-05 10:47 | 8.60296 | -79.33379 | 39876 ft | 478 kts | 309° |
| 2026-05-05 10:47 | 8.64482 | -79.38554 | 39868 ft | 478 kts | 309° |
| 2026-05-05 10:48 | 8.68696 | -79.43759 | 39863 ft | 479 kts | 309° |
| 2026-05-05 10:48 | 8.72909 | -79.48969 | 39862 ft | 479 kts | 309° |
| 2026-05-05 10:49 | 8.77122 | -79.54179 | 39853 ft | 478 kts | 309° |
| 2026-05-05 10:49 | 8.80975 | -79.59648 | 39858 ft | 478 kts | 302° |
| 2026-05-05 10:50 | 8.84208 | -79.65490 | 39747 ft | 477 kts | 278° |
| 2026-05-05 10:50 | 8.83832 | -79.68723 | 37737 ft | 473 kts | 227° |
| 2026-05-05 10:50 | 8.82037 | -79.71281 | 30356 ft | 388 kts | 226° |
| 2026-05-05 10:50 | 8.80100 | -79.72130 | 18161 ft | 329 kts | 171° |
| 2026-05-05 10:51 | 8.77166 | -79.70950 | 9408 ft | 565 kts | 147° |
| 2026-05-05 10:51 | 8.74710 | -79.68946 | 13993 ft | 299 kts | 129° |
| 2026-05-05 10:51 | 8.73901 | -79.67679 | 20372 ft | 187 kts | 120° |
| 2026-05-05 10:51 | 8.73242 | -79.66462 | 21266 ft | 212 kts | 116° |
| 2026-05-05 10:52 | 8.72472 | -79.64909 | 19102 ft | 290 kts | 114° |
| 2026-05-05 10:52 | 8.71555 | -79.62834 | 17735 ft | 339 kts | 111° |
| 2026-05-05 10:52 | 8.70699 | -79.60613 | 18125 ft | 339 kts | 109° |
| 2026-05-05 10:52 | 8.69951 | -79.58288 | 18050 ft | 366 kts | 104° |
| 2026-05-05 10:53 | 8.69373 | -79.55679 | 18083 ft | 388 kts | 98° |
| 2026-05-05 10:53 | 8.69241 | -79.53853 | 18329 ft | 395 kts | 88° |
| 2026-05-05 10:53 | 8.69595 | -79.51107 | 19026 ft | 394 kts | 76° |
| 2026-05-05 10:53 | 8.70545 | -79.48565 | 20083 ft | 382 kts | 60° |
| 2026-05-05 10:54 | 8.72119 | -79.46448 | 21105 ft | 374 kts | 44° |
| 2026-05-05 10:54 | 8.74199 | -79.44868 | 21723 ft | 378 kts | 28° |
| 2026-05-05 10:54 | 8.76702 | -79.43895 | 21836 ft | 396 kts | 13° |
| 2026-05-05 10:54 | 8.79511 | -79.43619 | 21818 ft | 418 kts | 358° |
| 2026-05-05 10:55 | 8.82441 | -79.44104 | 21987 ft | 434 kts | 343° |
| 2026-05-05 10:55 | 8.85225 | -79.45324 | 22499 ft | 439 kts | 329° |
| 2026-05-05 10:55 | 8.87646 | -79.47184 | 23369 ft | 435 kts | 316° |
| 2026-05-05 10:55 | 8.89545 | -79.49533 | 24160 ft | 431 kts | 303° |
| 2026-05-05 10:56 | 8.90945 | -79.52266 | 24154 ft | 450 kts | 291° |
| 2026-05-05 10:56 | 8.91839 | -79.55384 | 23402 ft | 472 kts | 281° |
| 2026-05-05 10:56 | 8.92149 | -79.58698 | 22118 ft | 487 kts | 271° |
| 2026-05-05 10:56 | 8.92105 | -79.62138 | 21522 ft | 485 kts | 269° |
| 2026-05-05 10:57 | 8.92045 | -79.65478 | 21772 ft | 461 kts | 270° |
| 2026-05-05 10:57 | 8.92081 | -79.68644 | 22775 ft | 438 kts | 272° |
| 2026-05-05 10:57 | 8.92255 | -79.71613 | 24286 ft | 405 kts | 276° |
| 2026-05-05 10:57 | 8.92559 | -79.74345 | 25681 ft | 379 kts | 279° |
| 2026-05-05 10:58 | 8.92998 | -79.76930 | 26261 ft | 379 kts | 283° |
| 2026-05-05 10:58 | 8.93683 | -79.79588 | 25834 ft | 407 kts | 289° |
| 2026-05-05 10:58 | 8.94830 | -79.82348 | 25013 ft | 441 kts | 300° |
| 2026-05-05 10:58 | 8.96497 | -79.84995 | 24433 ft | 448 kts | 306° |
| 2026-05-05 10:59 | 8.98347 | -79.87514 | 24322 ft | 440 kts | 308° |
| 2026-05-05 10:59 | 9.00146 | -79.90004 | 24697 ft | 438 kts | 304° |
| 2026-05-05 10:59 | 9.01733 | -79.92597 | 25601 ft | 426 kts | 301° |
| 2026-05-05 10:59 | 9.03194 | -79.95119 | 26771 ft | 406 kts | 302° |
| 2026-05-05 11:00 | 9.04667 | -79.97467 | 27655 ft | 397 kts | 304° |
| 2026-05-05 11:00 | 9.06207 | -79.99817 | 27833 ft | 407 kts | 304° |
| 2026-05-05 11:00 | 9.07784 | -80.02293 | 27488 ft | 431 kts | 302° |
| 2026-05-05 11:00 | 9.09407 | -80.04930 | 27263 ft | 451 kts | 302° |
| 2026-05-05 11:01 | 9.11087 | -80.07636 | 27588 ft | 455 kts | 303° |
| 2026-05-05 11:01 | 9.12750 | -80.10263 | 28319 ft | 428 kts | 303° |
| 2026-05-05 11:01 | 9.14334 | -80.12770 | 28905 ft | 422 kts | 303° |
| 2026-05-05 11:01 | 9.15919 | -80.15302 | 29139 ft | 430 kts | 302° |
| 2026-05-05 11:02 | 9.17541 | -80.17899 | 29172 ft | 443 kts | 302° |
| 2026-05-05 11:02 | 9.19211 | -80.20562 | 29286 ft | 452 kts | 303° |
| 2026-05-05 11:02 | 9.20907 | -80.23260 | 29750 ft | 453 kts | 303° |
| 2026-05-05 11:02 | 9.22584 | -80.25936 | 30382 ft | 448 kts | 302° |
| 2026-05-05 11:03 | 9.24242 | -80.28585 | 30995 ft | 443 kts | 302° |
| 2026-05-05 11:03 | 9.25889 | -80.31214 | 31387 ft | 444 kts | 302° |
| 2026-05-05 11:03 | 9.27559 | -80.33878 | 31483 ft | 453 kts | 302° |
| 2026-05-05 11:03 | 9.29246 | -80.36570 | 31464 ft | 464 kts | 302° |
| 2026-05-05 11:04 | 9.30987 | -80.39351 | 31567 ft | 471 kts | 302° |
| 2026-05-05 11:04 | 9.32742 | -80.42157 | 31982 ft | 470 kts | 302° |
| 2026-05-05 11:04 | 9.34482 | -80.44937 | 32610 ft | 464 kts | 302° |
| 2026-05-05 11:04 | 9.36198 | -80.47679 | 33194 ft | 459 kts | 302° |
| 2026-05-05 11:05 | 9.37911 | -80.50416 | 33523 ft | 461 kts | 302° |
| 2026-05-05 11:05 | 9.41416 | -80.56022 | 33456 ft | 481 kts | 302° |
| 2026-05-05 11:06 | 9.45035 | -80.61812 | 33953 ft | 485 kts | 303° |
| 2026-05-05 11:06 | 9.46829 | -80.64683 | 34500 ft | 479 kts | 303° |
| 2026-05-05 11:06 | 9.48605 | -80.67525 | 34991 ft | 475 kts | 303° |
| 2026-05-05 11:06 | 9.50351 | -80.70321 | 35247 ft | 476 kts | 303° |
| 2026-05-05 11:07 | 9.52133 | -80.73173 | 35247 ft | 484 kts | 303° |
| 2026-05-05 11:07 | 9.53954 | -80.76090 | 35139 ft | 493 kts | 303° |
| 2026-05-05 11:07 | 9.55793 | -80.79037 | 35112 ft | 494 kts | 303° |
| 2026-05-05 11:08 | 9.59479 | -80.84946 | 35494 ft | 496 kts | 303° |
| 2026-05-05 11:08 | 9.61320 | -80.87887 | 35864 ft | 493 kts | 303° |
| 2026-05-05 11:08 | 9.63161 | -80.90812 | 36240 ft | 491 kts | 303° |
| 2026-05-05 11:08 | 9.64999 | -80.93737 | 36490 ft | 492 kts | 303° |
| 2026-05-05 11:09 | 9.66840 | -80.96678 | 36532 ft | 495 kts | 303° |
| 2026-05-05 11:09 | 9.70534 | -81.02575 | 36156 ft | 496 kts | 303° |
| 2026-05-05 11:09 | 9.72360 | -81.05486 | 35766 ft | 496 kts | 303° |
| 2026-05-05 11:10 | 9.74214 | -81.08446 | 35289 ft | 496 kts | 303° |
| 2026-05-05 11:10 | 9.76064 | -81.11402 | 34874 ft | 495 kts | 303° |
| 2026-05-05 11:10 | 9.77907 | -81.14346 | 34532 ft | 493 kts | 303° |
| 2026-05-05 11:10 | 9.79737 | -81.17269 | 34282 ft | 491 kts | 303° |
| 2026-05-05 11:11 | 9.81576 | -81.20206 | 34182 ft | 495 kts | 303° |
| 2026-05-05 11:11 | 9.83423 | -81.23160 | 34331 ft | 495 kts | 303° |
| 2026-05-05 11:11 | 9.85264 | -81.26105 | 34785 ft | 492 kts | 303° |
| 2026-05-05 11:11 | 9.86618 | -81.28246 | 35620 ft | 464 kts | 303° |
| 2026-05-05 11:12 | 9.88307 | -81.30954 | 36109 ft | 452 kts | 302° |
| 2026-05-05 11:12 | 9.90011 | -81.33705 | 35586 ft | 471 kts | 302° |
| 2026-05-05 11:12 | 9.91807 | -81.36583 | 34572 ft | 492 kts | 303° |
| 2026-05-05 11:12 | 9.93673 | -81.39555 | 33623 ft | 503 kts | 303° |
| 2026-05-05 11:13 | 9.95526 | -81.42517 | 32970 ft | 504 kts | 302° |
| 2026-05-05 11:13 | 9.97407 | -81.45539 | 32756 ft | 495 kts | 302° |
| 2026-05-05 11:13 | 9.99230 | -81.48464 | 32906 ft | 489 kts | 303° |
| 2026-05-05 11:13 | 10.01021 | -81.51327 | 33433 ft | 484 kts | 303° |
| 2026-05-05 11:14 | 10.02804 | -81.54184 | 34191 ft | 474 kts | 302° |
| 2026-05-05 11:14 | 10.04556 | -81.56994 | 34787 ft | 467 kts | 302° |
| 2026-05-05 11:14 | 10.06297 | -81.59788 | 35000 ft | 470 kts | 302° |
| 2026-05-05 11:14 | 10.08071 | -81.62631 | 34842 ft | 483 kts | 302° |
| 2026-05-05 11:15 | 10.09892 | -81.65552 | 34565 ft | 492 kts | 302° |
| 2026-05-05 11:15 | 10.11727 | -81.68497 | 34449 ft | 493 kts | 302° |
| 2026-05-05 11:15 | 10.13557 | -81.71436 | 34486 ft | 493 kts | 302° |
| 2026-05-05 11:15 | 10.15394 | -81.74386 | 34768 ft | 493 kts | 302° |
| 2026-05-05 11:16 | 10.17220 | -81.77318 | 35244 ft | 489 kts | 302° |
| 2026-05-05 11:16 | 10.19030 | -81.80225 | 35736 ft | 485 kts | 302° |
| 2026-05-05 11:16 | 10.20810 | -81.83085 | 35987 ft | 486 kts | 302° |
| 2026-05-05 11:17 | 10.24462 | -81.88955 | 35778 ft | 495 kts | 302° |
| 2026-05-05 11:17 | 10.26294 | -81.91905 | 35471 ft | 494 kts | 300° |
| 2026-05-05 11:17 | 10.27738 | -81.95072 | 34792 ft | 498 kts | 287° |
| 2026-05-05 11:17 | 10.28442 | -81.98550 | 33724 ft | 510 kts | 276° |
| 2026-05-05 11:18 | 10.28610 | -82.02187 | 32770 ft | 518 kts | 269° |
| 2026-05-05 11:18 | 10.28464 | -82.05826 | 32366 ft | 513 kts | 266° |
| 2026-05-05 11:18 | 10.28175 | -82.09382 | 32492 ft | 496 kts | 265° |
| 2026-05-05 11:18 | 10.27830 | -82.12833 | 33031 ft | 486 kts | 264° |
| 2026-05-05 11:19 | 10.27466 | -82.16206 | 33911 ft | 474 kts | 264° |
| 2026-05-05 11:19 | 10.27101 | -82.19495 | 34658 ft | 464 kts | 264° |
| 2026-05-05 11:19 | 10.26744 | -82.22702 | 34986 ft | 464 kts | 264° |
| 2026-05-05 11:19 | 10.26380 | -82.25999 | 34828 ft | 476 kts | 264° |
| 2026-05-05 11:20 | 10.26005 | -82.29416 | 34462 ft | 491 kts | 264° |
| 2026-05-05 11:20 | 10.25626 | -82.32879 | 34215 ft | 494 kts | 264° |
| 2026-05-05 11:20 | 10.25247 | -82.36340 | 34165 ft | 493 kts | 264° |
| 2026-05-05 11:20 | 10.24868 | -82.39810 | 34376 ft | 495 kts | 264° |
| 2026-05-05 11:21 | 10.24495 | -82.43228 | 34855 ft | 490 kts | 264° |
| 2026-05-05 11:21 | 10.24124 | -82.46645 | 35431 ft | 483 kts | 264° |
| 2026-05-05 11:21 | 10.23761 | -82.50039 | 35835 ft | 481 kts | 264° |
| 2026-05-05 11:22 | 10.23043 | -82.56871 | 35744 ft | 492 kts | 264° |
| 2026-05-05 11:22 | 10.22681 | -82.60291 | 35454 ft | 494 kts | 264° |
| 2026-05-05 11:22 | 10.22310 | -82.63758 | 35108 ft | 493 kts | 264° |
| 2026-05-05 11:22 | 10.21937 | -82.67211 | 34759 ft | 490 kts | 264° |
| 2026-05-05 11:23 | 10.21565 | -82.70638 | 34365 ft | 487 kts | 264° |
| 2026-05-05 11:23 | 10.21190 | -82.74057 | 33954 ft | 484 kts | 264° |
| 2026-05-05 11:23 | 10.20816 | -82.77448 | 33471 ft | 482 kts | 264° |
| 2026-05-05 11:23 | 10.20440 | -82.80824 | 33021 ft | 479 kts | 264° |
| 2026-05-05 11:24 | 10.20065 | -82.84166 | 32619 ft | 475 kts | 264° |
| 2026-05-05 11:24 | 10.19694 | -82.87450 | 32247 ft | 471 kts | 264° |
| 2026-05-05 11:24 | 10.19318 | -82.90748 | 31882 ft | 467 kts | 264° |
| 2026-05-05 11:24 | 10.18942 | -82.94018 | 31494 ft | 466 kts | 264° |
| 2026-05-05 11:25 | 10.18568 | -82.97283 | 31142 ft | 463 kts | 264° |
| 2026-05-05 11:25 | 10.18202 | -83.00512 | 30811 ft | 459 kts | 264° |
| 2026-05-05 11:25 | 10.17838 | -83.03715 | 30446 ft | 455 kts | 264° |
| 2026-05-05 11:25 | 10.17478 | -83.06906 | 30045 ft | 453 kts | 264° |
| 2026-05-05 11:26 | 10.17123 | -83.10075 | 29556 ft | 452 kts | 264° |
| 2026-05-05 11:26 | 10.16769 | -83.13236 | 29106 ft | 449 kts | 264° |
| 2026-05-05 11:26 | 10.16422 | -83.16379 | 28707 ft | 446 kts | 264° |
| 2026-05-05 11:26 | 10.16082 | -83.19455 | 28383 ft | 441 kts | 264° |
| 2026-05-05 11:27 | 10.15745 | -83.22536 | 28029 ft | 437 kts | 264° |
| 2026-05-05 11:27 | 10.15411 | -83.25590 | 27645 ft | 434 kts | 264° |
| 2026-05-05 11:27 | 10.15078 | -83.28634 | 27218 ft | 432 kts | 264° |
| 2026-05-05 11:27 | 10.14750 | -83.31664 | 26790 ft | 431 kts | 264° |
| 2026-05-05 11:28 | 10.14425 | -83.34686 | 26397 ft | 429 kts | 264° |
| 2026-05-05 11:28 | 10.14102 | -83.37684 | 26062 ft | 426 kts | 264° |
| 2026-05-05 11:28 | 10.13784 | -83.40662 | 25733 ft | 420 kts | 264° |
| 2026-05-05 11:28 | 10.13471 | -83.43583 | 24802 ft | 416 kts | 264° |
| 2026-05-05 11:29 | 10.13156 | -83.46556 | 23045 ft | 432 kts | 264° |
| 2026-05-05 11:29 | 10.12833 | -83.49674 | 20626 ft | 460 kts | 264° |
| 2026-05-05 11:29 | 10.12521 | -83.52977 | 18742 ft | 488 kts | 264° |
| 2026-05-05 11:29 | 10.12214 | -83.56449 | 17538 ft | 493 kts | 264° |
| 2026-05-05 11:30 | 10.11922 | -83.59849 | 17271 ft | 472 kts | 264° |
| 2026-05-05 11:30 | 10.11649 | -83.63062 | 17590 ft | 439 kts | 264° |
| 2026-05-05 11:30 | 10.11369 | -83.66028 | 18277 ft | 399 kts | 259° |
| 2026-05-05 11:30 | 10.10801 | -83.68648 | 18804 ft | 364 kts | 253° |
| 2026-05-05 11:31 | 10.10097 | -83.71054 | 18763 ft | 351 kts | 251° |
| 2026-05-05 11:31 | 10.09331 | -83.73434 | 17880 ft | 363 kts | 250° |
| 2026-05-05 11:31 | 10.08505 | -83.75908 | 16600 ft | 385 kts | 250° |
| 2026-05-05 11:31 | 10.07616 | -83.78527 | 15611 ft | 397 kts | 250° |
| 2026-05-05 11:32 | 10.06714 | -83.81171 | 15085 ft | 394 kts | 250° |
| 2026-05-05 11:32 | 10.05832 | -83.83756 | 14957 ft | 380 kts | 250° |
| 2026-05-05 11:32 | 10.04993 | -83.86224 | 15026 ft | 360 kts | 250° |
| 2026-05-05 11:32 | 10.04173 | -83.88648 | 15194 ft | 368 kts | 250° |
| 2026-05-05 11:33 | 10.03336 | -83.91130 | 15715 ft | 371 kts | 250° |
| 2026-05-05 11:33 | 10.02759 | -83.93658 | 16427 ft | 370 kts | 265° |
| 2026-05-05 11:33 | 10.02748 | -83.96270 | 17025 ft | 370 kts | 276° |
| 2026-05-05 11:33 | 10.03333 | -83.98836 | 17445 ft | 379 kts | 289° |
| 2026-05-05 11:34 | 10.04315 | -84.01338 | 17913 ft | 383 kts | 294° |
| 2026-05-05 11:34 | 10.05430 | -84.03788 | 18589 ft | 380 kts | 295° |
| 2026-05-05 11:34 | 10.06573 | -84.06185 | 19281 ft | 375 kts | 296° |
| 2026-05-05 11:34 | 10.07717 | -84.08558 | 19830 ft | 375 kts | 296° |
| 2026-05-05 11:35 | 10.08875 | -84.10962 | 20116 ft | 384 kts | 296° |
| 2026-05-05 11:35 | 10.10045 | -84.13401 | 20323 ft | 394 kts | 296° |
| 2026-05-05 11:35 | 10.11252 | -84.15925 | 20699 ft | 399 kts | 296° |
| 2026-05-05 11:35 | 10.12547 | -84.18410 | 21235 ft | 397 kts | 306° |
| 2026-05-05 11:36 | 10.14294 | -84.20585 | 21632 ft | 399 kts | 315° |
| 2026-05-05 11:36 | 10.16273 | -84.22563 | 22112 ft | 399 kts | 317° |
| 2026-05-05 11:36 | 10.18251 | -84.24532 | 22726 ft | 396 kts | 314° |
| 2026-05-05 11:36 | 10.20067 | -84.26634 | 23256 ft | 396 kts | 310° |
| 2026-05-05 11:37 | 10.21802 | -84.28824 | 23609 ft | 400 kts | 311° |
| 2026-05-05 11:37 | 10.23624 | -84.30991 | 23823 ft | 407 kts | 313° |
| 2026-05-05 11:37 | 10.25532 | -84.33139 | 24043 ft | 412 kts | 313° |
| 2026-05-05 11:37 | 10.27432 | -84.35320 | 24392 ft | 413 kts | 312° |
| 2026-05-05 11:38 | 10.29301 | -84.37537 | 24860 ft | 412 kts | 311° |
| 2026-05-05 11:38 | 10.31163 | -84.39736 | 25426 ft | 409 kts | 312° |
| 2026-05-05 11:38 | 10.33009 | -84.41878 | 25933 ft | 407 kts | 313° |
| 2026-05-05 11:38 | 10.34884 | -84.44051 | 26252 ft | 412 kts | 312° |
| 2026-05-05 11:39 | 10.36783 | -84.46272 | 26401 ft | 421 kts | 312° |
| 2026-05-05 11:39 | 10.38719 | -84.48543 | 26577 ft | 429 kts | 312° |
| 2026-05-05 11:39 | 10.40707 | -84.50868 | 26947 ft | 431 kts | 312° |
| 2026-05-05 11:39 | 10.42646 | -84.53130 | 27462 ft | 428 kts | 312° |
| 2026-05-05 11:40 | 10.44590 | -84.55402 | 28013 ft | 425 kts | 312° |
| 2026-05-05 11:40 | 10.46536 | -84.57680 | 28412 ft | 427 kts | 312° |
| 2026-05-05 11:40 | 10.48504 | -84.59981 | 28588 ft | 434 kts | 312° |
| 2026-05-05 11:40 | 10.50505 | -84.62321 | 28715 ft | 443 kts | 312° |
| 2026-05-05 11:41 | 10.51849 | -84.63894 | 28858 ft | 446 kts | 312° |
| 2026-05-05 11:41 | 10.53883 | -84.66275 | 29246 ft | 447 kts | 312° |
| 2026-05-05 11:41 | 10.55921 | -84.68661 | 29804 ft | 444 kts | 312° |
| 2026-05-05 11:41 | 10.57939 | -84.71024 | 30282 ft | 442 kts | 312° |
| 2026-05-05 11:42 | 10.59959 | -84.73388 | 30589 ft | 444 kts | 311° |
| 2026-05-05 11:42 | 10.62001 | -84.75779 | 30767 ft | 450 kts | 312° |
| 2026-05-05 11:42 | 10.64067 | -84.78200 | 30883 ft | 456 kts | 311° |
| 2026-05-05 11:42 | 10.66157 | -84.80649 | 31095 ft | 460 kts | 311° |
| 2026-05-05 11:43 | 10.68255 | -84.83110 | 31433 ft | 459 kts | 311° |
| 2026-05-05 11:43 | 10.70343 | -84.85557 | 31850 ft | 457 kts | 311° |
| 2026-05-05 11:43 | 10.72422 | -84.87996 | 32227 ft | 456 kts | 311° |
| 2026-05-05 11:43 | 10.74510 | -84.90443 | 32450 ft | 459 kts | 311° |
| 2026-05-05 11:44 | 10.76609 | -84.92906 | 32533 ft | 463 kts | 311° |
| 2026-05-05 11:44 | 10.80820 | -84.97848 | 32495 ft | 465 kts | 311° |
| 2026-05-05 11:44 | 10.82935 | -85.00331 | 32390 ft | 464 kts | 311° |
| 2026-05-05 11:45 | 10.85046 | -85.02811 | 32227 ft | 462 kts | 312° |
| 2026-05-05 11:45 | 10.87148 | -85.05279 | 31981 ft | 461 kts | 311° |
| 2026-05-05 11:45 | 10.89245 | -85.07743 | 31666 ft | 459 kts | 311° |
| 2026-05-05 11:45 | 10.91330 | -85.10194 | 31284 ft | 457 kts | 311° |
| 2026-05-05 11:46 | 10.93406 | -85.12633 | 30861 ft | 455 kts | 311° |
| 2026-05-05 11:46 | 10.95474 | -85.15065 | 30411 ft | 452 kts | 311° |
| 2026-05-05 11:46 | 10.97521 | -85.17472 | 29943 ft | 449 kts | 311° |
| 2026-05-05 11:46 | 10.99539 | -85.19847 | 29419 ft | 447 kts | 311° |
| 2026-05-05 11:47 | 11.01552 | -85.22254 | 28970 ft | 444 kts | 311° |
| 2026-05-05 11:47 | 11.03574 | -85.24614 | 28606 ft | 439 kts | 313° |
| 2026-05-05 11:47 | 11.05581 | -85.26937 | 28275 ft | 434 kts | 312° |
| 2026-05-05 11:47 | 11.07553 | -85.29262 | 27712 ft | 434 kts | 312° |
| 2026-05-05 11:48 | 11.11355 | -85.33767 | 27867 ft | 402 kts | 312° |
| 2026-05-05 11:48 | 11.13153 | -85.35873 | 27998 ft | 386 kts | 312° |
| 2026-05-05 11:48 | 11.14895 | -85.37920 | 28129 ft | 383 kts | 312° |
| 2026-05-05 11:49 | 11.16629 | -85.39965 | 28293 ft | 390 kts | 312° |
| 2026-05-05 11:49 | 11.18417 | -85.42076 | 28474 ft | 397 kts | 312° |
| 2026-05-05 11:49 | 11.20236 | -85.44221 | 28671 ft | 403 kts | 312° |
| 2026-05-05 11:49 | 11.22085 | -85.46400 | 28862 ft | 409 kts | 312° |
| 2026-05-05 11:50 | 11.23963 | -85.48615 | 29084 ft | 416 kts | 312° |
| 2026-05-05 11:50 | 11.25872 | -85.50868 | 29175 ft | 425 kts | 312° |
| 2026-05-05 11:50 | 11.29811 | -85.55516 | 29355 ft | 442 kts | 311° |
| 2026-05-05 11:51 | 11.33908 | -85.60355 | 29547 ft | 458 kts | 311° |
| 2026-05-05 11:51 | 11.36006 | -85.62832 | 29664 ft | 464 kts | 311° |
| 2026-05-05 11:51 | 11.38115 | -85.65323 | 29773 ft | 466 kts | 311° |
| 2026-05-05 11:52 | 11.42336 | -85.70312 | 29946 ft | 467 kts | 311° |
| 2026-05-05 11:52 | 11.46588 | -85.75340 | 30103 ft | 468 kts | 311° |
| 2026-05-05 11:53 | 11.50842 | -85.80373 | 30240 ft | 468 kts | 311° |
| 2026-05-05 11:53 | 11.55077 | -85.85386 | 30376 ft | 470 kts | 311° |
| 2026-05-05 11:54 | 11.59345 | -85.90440 | 30510 ft | 470 kts | 311° |
| 2026-05-05 11:54 | 11.63615 | -85.95499 | 30654 ft | 471 kts | 311° |
| 2026-05-05 11:55 | 11.67895 | -86.00574 | 30795 ft | 471 kts | 311° |
| 2026-05-05 11:55 | 11.72167 | -86.05640 | 30921 ft | 472 kts | 311° |
| 2026-05-05 11:56 | 11.76458 | -86.10733 | 31069 ft | 473 kts | 311° |
| 2026-05-05 11:56 | 11.80725 | -86.15799 | 31201 ft | 474 kts | 311° |
| 2026-05-05 11:57 | 11.85028 | -86.20911 | 31338 ft | 474 kts | 311° |
| 2026-05-05 11:57 | 11.89339 | -86.26035 | 31473 ft | 476 kts | 311° |
| 2026-05-05 11:58 | 11.93659 | -86.31172 | 31619 ft | 477 kts | 311° |
| 2026-05-05 11:58 | 11.97976 | -86.36308 | 31769 ft | 479 kts | 311° |
| 2026-05-05 11:59 | 12.02316 | -86.41475 | 31895 ft | 479 kts | 311° |
| 2026-05-05 11:59 | 12.06667 | -86.46658 | 32051 ft | 481 kts | 311° |
| 2026-05-05 12:00 | 12.11022 | -86.51848 | 32196 ft | 481 kts | 311° |
| 2026-05-05 12:00 | 12.15387 | -86.57052 | 32345 ft | 482 kts | 311° |
| 2026-05-05 12:01 | 12.19762 | -86.62271 | 32488 ft | 484 kts | 311° |
| 2026-05-05 12:01 | 12.24144 | -86.67502 | 32645 ft | 485 kts | 311° |
| 2026-05-05 12:02 | 12.28538 | -86.72751 | 32789 ft | 486 kts | 311° |
| 2026-05-05 12:02 | 12.32919 | -86.77986 | 32941 ft | 488 kts | 311° |
| 2026-05-05 12:03 | 12.37337 | -86.83270 | 33116 ft | 489 kts | 311° |
| 2026-05-05 12:03 | 12.41762 | -86.88563 | 33263 ft | 490 kts | 311° |
| 2026-05-05 12:04 | 12.46189 | -86.93863 | 33415 ft | 490 kts | 311° |
| 2026-05-05 12:04 | 12.50625 | -86.99177 | 33565 ft | 491 kts | 311° |
| 2026-05-05 12:05 | 12.55067 | -87.04500 | 33723 ft | 492 kts | 311° |
| 2026-05-05 12:05 | 12.59518 | -87.09838 | 33876 ft | 493 kts | 311° |
| 2026-05-05 12:06 | 12.63966 | -87.15175 | 34018 ft | 493 kts | 311° |
| 2026-05-05 12:06 | 12.68407 | -87.20508 | 34159 ft | 492 kts | 311° |
| 2026-05-05 12:07 | 12.72843 | -87.25837 | 34278 ft | 492 kts | 311° |
| 2026-05-05 12:07 | 12.77273 | -87.31162 | 34404 ft | 491 kts | 311° |
| 2026-05-05 12:08 | 12.81698 | -87.36483 | 34534 ft | 490 kts | 310° |
| 2026-05-05 12:08 | 12.86113 | -87.41797 | 34659 ft | 489 kts | 310° |
| 2026-05-05 12:09 | 12.90520 | -87.47103 | 34790 ft | 488 kts | 310° |
| 2026-05-05 12:09 | 12.94921 | -87.52406 | 34918 ft | 489 kts | 310° |
| 2026-05-05 12:10 | 12.99324 | -87.57715 | 35047 ft | 489 kts | 310° |
| 2026-05-05 12:10 | 13.03718 | -87.63015 | 35184 ft | 488 kts | 310° |
| 2026-05-05 12:11 | 13.08110 | -87.68316 | 35301 ft | 487 kts | 310° |
| 2026-05-05 12:11 | 13.12491 | -87.73607 | 35443 ft | 486 kts | 310° |
| 2026-05-05 12:12 | 13.16870 | -87.78899 | 35580 ft | 486 kts | 310° |
| 2026-05-05 12:12 | 13.21245 | -87.84189 | 35716 ft | 486 kts | 310° |
| 2026-05-05 12:13 | 13.25613 | -87.89475 | 35843 ft | 485 kts | 310° |
| 2026-05-05 12:13 | 13.29978 | -87.94760 | 35922 ft | 485 kts | 310° |
| 2026-05-05 12:14 | 13.34304 | -88.00000 | 35923 ft | 484 kts | 310° |
| 2026-05-05 12:14 | 13.38660 | -88.05280 | 35923 ft | 485 kts | 310° |
| 2026-05-05 12:15 | 13.43015 | -88.10563 | 35932 ft | 484 kts | 310° |
| 2026-05-05 12:15 | 13.47371 | -88.15850 | 35935 ft | 484 kts | 310° |
| 2026-05-05 12:16 | 13.51721 | -88.21132 | 35940 ft | 484 kts | 310° |
| 2026-05-05 12:16 | 13.56071 | -88.26418 | 35945 ft | 484 kts | 310° |
| 2026-05-05 12:17 | 13.60406 | -88.31689 | 35950 ft | 482 kts | 310° |
| 2026-05-05 12:17 | 13.64733 | -88.36954 | 35951 ft | 481 kts | 310° |
| 2026-05-05 12:18 | 13.69051 | -88.42210 | 35957 ft | 481 kts | 310° |
| 2026-05-05 12:18 | 13.73368 | -88.47470 | 35956 ft | 481 kts | 310° |
| 2026-05-05 12:19 | 13.77659 | -88.52700 | 35959 ft | 481 kts | 310° |
| 2026-05-05 12:19 | 13.81975 | -88.57964 | 35961 ft | 482 kts | 310° |
| 2026-05-05 12:20 | 13.86293 | -88.63235 | 35958 ft | 481 kts | 310° |
| 2026-05-05 12:20 | 13.90604 | -88.68499 | 35961 ft | 481 kts | 310° |
| 2026-05-05 12:21 | 13.94910 | -88.73762 | 35957 ft | 480 kts | 310° |
| 2026-05-05 12:21 | 13.99220 | -88.79032 | 35964 ft | 481 kts | 310° |
| 2026-05-05 12:22 | 14.03533 | -88.84309 | 35963 ft | 481 kts | 310° |
| 2026-05-05 12:22 | 14.07841 | -88.89583 | 35964 ft | 481 kts | 310° |
| 2026-05-05 12:23 | 14.12152 | -88.94865 | 35967 ft | 482 kts | 310° |
| 2026-05-05 12:23 | 14.16464 | -89.00151 | 35975 ft | 482 kts | 310° |
| 2026-05-05 12:24 | 14.20772 | -89.05437 | 35987 ft | 482 kts | 309° |
| 2026-05-05 12:24 | 14.25091 | -89.10739 | 35995 ft | 483 kts | 309° |
| 2026-05-05 12:25 | 14.29408 | -89.16042 | 36006 ft | 483 kts | 309° |
| 2026-05-05 12:25 | 14.33727 | -89.21350 | 36016 ft | 483 kts | 309° |
| 2026-05-05 12:26 | 14.38039 | -89.26654 | 36020 ft | 482 kts | 309° |
| 2026-05-05 12:26 | 14.42315 | -89.31917 | 36028 ft | 482 kts | 309° |
| 2026-05-05 12:27 | 14.46621 | -89.37221 | 36035 ft | 482 kts | 309° |
| 2026-05-05 12:27 | 14.50927 | -89.42527 | 36039 ft | 482 kts | 309° |
| 2026-05-05 12:28 | 14.55231 | -89.47835 | 36046 ft | 482 kts | 309° |
| 2026-05-05 12:28 | 14.59538 | -89.53150 | 36055 ft | 482 kts | 309° |
| 2026-05-05 12:29 | 14.63840 | -89.58462 | 36061 ft | 482 kts | 309° |
| 2026-05-05 12:29 | 14.67406 | -89.62869 | 36067 ft | 481 kts | 309° |
| 2026-05-05 12:30 | 14.71699 | -89.68176 | 36070 ft | 481 kts | 309° |
| 2026-05-05 12:30 | 14.75981 | -89.73474 | 36081 ft | 480 kts | 309° |
| 2026-05-05 12:31 | 14.80261 | -89.78773 | 36090 ft | 481 kts | 309° |
| 2026-05-05 12:31 | 14.84548 | -89.84084 | 36101 ft | 481 kts | 309° |
| 2026-05-05 12:32 | 14.88829 | -89.89392 | 36112 ft | 480 kts | 309° |
| 2026-05-05 12:32 | 14.93104 | -89.94696 | 36120 ft | 480 kts | 309° |
| 2026-05-05 12:33 | 14.97378 | -90.00001 | 36135 ft | 480 kts | 309° |
| 2026-05-05 12:33 | 15.01653 | -90.05312 | 36145 ft | 480 kts | 309° |
| 2026-05-05 12:34 | 15.05926 | -90.10624 | 36153 ft | 481 kts | 309° |
| 2026-05-05 12:34 | 15.10203 | -90.15945 | 36161 ft | 480 kts | 309° |
| 2026-05-05 12:35 | 15.14467 | -90.21253 | 36170 ft | 480 kts | 309° |
| 2026-05-05 12:35 | 15.18707 | -90.26536 | 36175 ft | 480 kts | 309° |
| 2026-05-05 12:36 | 15.22966 | -90.31844 | 36181 ft | 479 kts | 309° |
| 2026-05-05 12:36 | 15.27219 | -90.37150 | 36179 ft | 479 kts | 309° |
| 2026-05-05 12:37 | 15.31468 | -90.42454 | 36167 ft | 478 kts | 309° |
| 2026-05-05 12:37 | 15.35720 | -90.47767 | 36168 ft | 478 kts | 309° |
| 2026-05-05 12:38 | 15.39965 | -90.53073 | 36156 ft | 478 kts | 309° |
| 2026-05-05 12:38 | 15.44212 | -90.58386 | 36144 ft | 478 kts | 309° |
| 2026-05-05 12:39 | 15.48452 | -90.63694 | 36135 ft | 478 kts | 309° |
| 2026-05-05 12:39 | 15.52694 | -90.69008 | 36125 ft | 478 kts | 309° |
| 2026-05-05 12:40 | 15.56930 | -90.74318 | 36113 ft | 478 kts | 309° |
| 2026-05-05 12:40 | 15.61136 | -90.79594 | 36108 ft | 477 kts | 309° |
| 2026-05-05 12:41 | 15.65365 | -90.84905 | 36099 ft | 477 kts | 309° |
| 2026-05-05 12:41 | 15.69589 | -90.90211 | 36095 ft | 478 kts | 309° |
| 2026-05-05 12:42 | 15.73821 | -90.95532 | 36085 ft | 477 kts | 309° |
| 2026-05-05 12:42 | 15.78050 | -91.00852 | 36078 ft | 478 kts | 309° |
| 2026-05-05 12:43 | 15.82287 | -91.06186 | 36078 ft | 479 kts | 309° |
| 2026-05-05 12:43 | 15.86525 | -91.11527 | 36067 ft | 479 kts | 309° |
| 2026-05-05 12:44 | 15.90762 | -91.16869 | 36069 ft | 479 kts | 309° |
| 2026-05-05 12:44 | 15.94996 | -91.22212 | 36063 ft | 479 kts | 309° |
| 2026-05-05 12:45 | 15.99227 | -91.27554 | 36061 ft | 478 kts | 309° |
| 2026-05-05 12:45 | 16.03455 | -91.32898 | 36059 ft | 479 kts | 309° |
| 2026-05-05 12:46 | 16.07655 | -91.38208 | 36059 ft | 478 kts | 309° |
| 2026-05-05 12:46 | 16.11929 | -91.43566 | 36055 ft | 478 kts | 309° |
| 2026-05-05 12:47 | 16.16181 | -91.48890 | 36057 ft | 478 kts | 309° |
| 2026-05-05 12:47 | 16.20425 | -91.54222 | 36057 ft | 478 kts | 309° |
| 2026-05-05 12:48 | 16.24645 | -91.59515 | 36058 ft | 478 kts | 309° |
| 2026-05-05 12:48 | 16.28887 | -91.64849 | 36058 ft | 478 kts | 309° |
| 2026-05-05 12:49 | 16.33132 | -91.70185 | 36056 ft | 478 kts | 309° |
| 2026-05-05 12:49 | 16.37363 | -91.75510 | 36054 ft | 477 kts | 309° |
| 2026-05-05 12:50 | 16.41593 | -91.80837 | 36058 ft | 477 kts | 309° |
| 2026-05-05 12:50 | 16.45819 | -91.86164 | 36057 ft | 476 kts | 309° |
| 2026-05-05 12:51 | 16.50043 | -91.91491 | 36059 ft | 477 kts | 309° |
| 2026-05-05 12:51 | 16.54263 | -91.96818 | 36059 ft | 477 kts | 309° |
| 2026-05-05 12:52 | 16.58489 | -92.02156 | 36065 ft | 477 kts | 309° |
| 2026-05-05 12:52 | 16.62714 | -92.07497 | 36062 ft | 478 kts | 309° |
| 2026-05-05 12:53 | 16.66943 | -92.12847 | 36062 ft | 478 kts | 309° |
| 2026-05-05 12:53 | 16.71172 | -92.18202 | 36061 ft | 479 kts | 309° |
| 2026-05-05 12:54 | 16.77516 | -92.26242 | 36059 ft | 479 kts | 309° |
| 2026-05-05 12:55 | 16.81717 | -92.31570 | 36054 ft | 478 kts | 309° |
| 2026-05-05 12:55 | 16.85944 | -92.36937 | 36052 ft | 479 kts | 309° |
| 2026-05-05 12:56 | 16.90167 | -92.42302 | 36048 ft | 479 kts | 309° |
| 2026-05-05 12:56 | 16.94398 | -92.47682 | 36047 ft | 479 kts | 309° |
| 2026-05-05 12:57 | 16.98657 | -92.53102 | 36041 ft | 479 kts | 309° |
| 2026-05-05 12:57 | 17.02885 | -92.58486 | 36037 ft | 480 kts | 309° |
| 2026-05-05 12:58 | 17.07093 | -92.63849 | 36029 ft | 480 kts | 309° |
| 2026-05-05 12:58 | 17.11330 | -92.69253 | 36025 ft | 481 kts | 309° |
| 2026-05-05 12:59 | 17.15572 | -92.74668 | 36022 ft | 482 kts | 309° |
| 2026-05-05 12:59 | 17.19819 | -92.80094 | 36017 ft | 483 kts | 309° |
| 2026-05-05 13:00 | 17.26197 | -92.88250 | 36001 ft | 483 kts | 309° |
| 2026-05-05 13:01 | 17.34707 | -92.99148 | 35985 ft | 484 kts | 309° |
| 2026-05-05 13:01 | 17.38961 | -93.04602 | 35971 ft | 483 kts | 309° |
| 2026-05-05 13:02 | 17.43216 | -93.10062 | 35966 ft | 484 kts | 309° |
| 2026-05-05 13:02 | 17.47474 | -93.15531 | 35954 ft | 484 kts | 309° |
| 2026-05-05 13:03 | 17.51730 | -93.21001 | 35949 ft | 485 kts | 310° |
| 2026-05-05 13:03 | 17.55991 | -93.26483 | 35941 ft | 485 kts | 309° |
| 2026-05-05 13:04 | 17.60249 | -93.31964 | 35933 ft | 485 kts | 310° |
| 2026-05-05 13:04 | 17.64504 | -93.37447 | 35926 ft | 485 kts | 310° |
| 2026-05-05 13:05 | 17.68757 | -93.42931 | 35924 ft | 485 kts | 310° |
| 2026-05-05 13:05 | 17.72986 | -93.48389 | 35929 ft | 485 kts | 310° |
| 2026-05-05 13:06 | 17.77246 | -93.53891 | 35922 ft | 486 kts | 310° |
| 2026-05-05 13:06 | 17.81508 | -93.59402 | 35927 ft | 486 kts | 310° |
| 2026-05-05 13:07 | 17.85772 | -93.64919 | 35926 ft | 487 kts | 310° |
| 2026-05-05 13:07 | 17.90034 | -93.70438 | 35926 ft | 487 kts | 310° |
| 2026-05-05 13:08 | 17.94296 | -93.75961 | 35925 ft | 487 kts | 309° |
| 2026-05-05 13:08 | 17.98559 | -93.81492 | 35921 ft | 487 kts | 310° |
| 2026-05-05 13:09 | 18.02826 | -93.87031 | 35928 ft | 488 kts | 309° |
| 2026-05-05 13:09 | 18.07090 | -93.92572 | 35925 ft | 487 kts | 309° |
| 2026-05-05 13:10 | 18.11351 | -93.98114 | 35921 ft | 487 kts | 309° |
| 2026-05-05 13:10 | 18.15611 | -94.03659 | 35916 ft | 487 kts | 309° |
| 2026-05-05 13:11 | 18.19870 | -94.09207 | 35920 ft | 488 kts | 309° |
| 2026-05-05 13:11 | 18.24132 | -94.14763 | 35922 ft | 488 kts | 309° |
| 2026-05-05 13:12 | 18.28394 | -94.20326 | 35919 ft | 488 kts | 309° |
| 2026-05-05 13:12 | 18.32649 | -94.25883 | 35916 ft | 487 kts | 309° |
| 2026-05-05 13:13 | 18.36896 | -94.31435 | 35912 ft | 487 kts | 309° |
| 2026-05-05 13:13 | 18.41137 | -94.36984 | 35907 ft | 486 kts | 309° |
| 2026-05-05 13:14 | 18.45377 | -94.42537 | 35907 ft | 487 kts | 309° |
| 2026-05-05 13:14 | 18.49620 | -94.48097 | 35912 ft | 487 kts | 309° |
| 2026-05-05 13:15 | 18.53862 | -94.53663 | 35914 ft | 487 kts | 309° |
| 2026-05-05 13:15 | 18.58101 | -94.59228 | 35913 ft | 487 kts | 309° |
| 2026-05-05 13:16 | 18.61623 | -94.63857 | 35914 ft | 487 kts | 309° |
| 2026-05-05 13:16 | 18.65851 | -94.69417 | 35911 ft | 486 kts | 309° |
| 2026-05-05 13:17 | 18.70081 | -94.74985 | 35909 ft | 486 kts | 309° |
| 2026-05-05 13:17 | 18.74311 | -94.80558 | 35908 ft | 486 kts | 309° |
| 2026-05-05 13:18 | 18.78541 | -94.86135 | 35907 ft | 487 kts | 309° |
| 2026-05-05 13:18 | 18.82772 | -94.91719 | 35909 ft | 487 kts | 309° |
| 2026-05-05 13:19 | 18.87001 | -94.97306 | 35907 ft | 487 kts | 309° |
| 2026-05-05 13:19 | 18.91198 | -95.02855 | 35905 ft | 487 kts | 309° |
| 2026-05-05 13:20 | 18.95419 | -95.08441 | 35905 ft | 486 kts | 309° |
| 2026-05-05 13:20 | 18.99634 | -95.14024 | 35905 ft | 486 kts | 309° |
| 2026-05-05 13:21 | 19.03847 | -95.19610 | 35904 ft | 485 kts | 309° |
| 2026-05-05 13:21 | 19.08056 | -95.25196 | 35903 ft | 486 kts | 309° |
| 2026-05-05 13:22 | 19.12262 | -95.30784 | 35906 ft | 486 kts | 309° |
| 2026-05-05 13:22 | 19.16471 | -95.36379 | 35905 ft | 486 kts | 309° |
| 2026-05-05 13:23 | 19.20676 | -95.41975 | 35904 ft | 486 kts | 309° |
| 2026-05-05 13:23 | 19.24878 | -95.47573 | 35905 ft | 486 kts | 309° |
| 2026-05-05 13:24 | 19.29077 | -95.53171 | 35906 ft | 485 kts | 309° |
| 2026-05-05 13:24 | 19.33273 | -95.58770 | 35908 ft | 486 kts | 309° |
| 2026-05-05 13:25 | 19.37474 | -95.64382 | 35910 ft | 486 kts | 309° |
| 2026-05-05 13:25 | 19.41667 | -95.69987 | 35909 ft | 485 kts | 309° |
| 2026-05-05 13:26 | 19.45830 | -95.75558 | 35908 ft | 486 kts | 309° |
| 2026-05-05 13:26 | 19.50022 | -95.81172 | 35909 ft | 486 kts | 309° |
| 2026-05-05 13:27 | 19.54216 | -95.86794 | 35910 ft | 486 kts | 308° |
| 2026-05-05 13:27 | 19.58403 | -95.92414 | 35907 ft | 485 kts | 308° |
| 2026-05-05 13:28 | 19.62587 | -95.98033 | 35904 ft | 485 kts | 308° |
| 2026-05-05 13:28 | 19.66774 | -96.03663 | 35904 ft | 485 kts | 308° |
| 2026-05-05 13:29 | 19.70958 | -96.09293 | 35903 ft | 486 kts | 308° |
| 2026-05-05 13:29 | 19.75140 | -96.14925 | 35903 ft | 486 kts | 308° |
| 2026-05-05 13:30 | 19.79323 | -96.20566 | 35901 ft | 486 kts | 308° |
| 2026-05-05 13:30 | 19.83499 | -96.26202 | 35901 ft | 486 kts | 308° |
| 2026-05-05 13:31 | 19.87676 | -96.31843 | 35901 ft | 486 kts | 308° |
| 2026-05-05 13:31 | 19.91852 | -96.37490 | 35903 ft | 486 kts | 308° |
| 2026-05-05 13:32 | 19.96030 | -96.43144 | 35908 ft | 486 kts | 308° |
| 2026-05-05 13:32 | 20.00197 | -96.48788 | 35905 ft | 485 kts | 308° |
| 2026-05-05 13:33 | 20.04363 | -96.54438 | 35910 ft | 486 kts | 308° |
| 2026-05-05 13:33 | 20.08531 | -96.60095 | 35911 ft | 485 kts | 308° |
| 2026-05-05 13:34 | 20.12699 | -96.65758 | 35906 ft | 486 kts | 307° |
| 2026-05-05 13:34 | 20.16674 | -96.71514 | 35916 ft | 486 kts | 297° |
| 2026-05-05 13:35 | 20.18012 | -96.74810 | 35923 ft | 486 kts | 286° |
| 2026-05-05 13:35 | 20.18713 | -96.78320 | 35923 ft | 485 kts | 275° |
| 2026-05-05 13:35 | 20.18572 | -96.85488 | 35918 ft | 485 kts | 266° |
| 2026-05-05 13:36 | 20.18149 | -96.92658 | 35919 ft | 485 kts | 266° |
| 2026-05-05 13:36 | 20.17760 | -96.99846 | 35919 ft | 486 kts | 266° |
| 2026-05-05 13:37 | 20.17342 | -97.07027 | 35924 ft | 487 kts | 266° |
| 2026-05-05 13:37 | 20.16937 | -97.14218 | 35927 ft | 487 kts | 266° |
| 2026-05-05 13:38 | 20.16520 | -97.21405 | 35930 ft | 486 kts | 266° |
| 2026-05-05 13:38 | 20.16105 | -97.28597 | 35932 ft | 487 kts | 266° |
| 2026-05-05 13:39 | 20.15683 | -97.35802 | 35937 ft | 488 kts | 266° |
| 2026-05-05 13:39 | 20.15260 | -97.42997 | 35939 ft | 488 kts | 266° |
| 2026-05-05 13:40 | 20.14833 | -97.50203 | 35943 ft | 488 kts | 266° |
| 2026-05-05 13:40 | 20.14406 | -97.57369 | 35951 ft | 488 kts | 266° |
| 2026-05-05 13:41 | 20.13973 | -97.64578 | 35962 ft | 488 kts | 266° |
| 2026-05-05 13:41 | 20.13538 | -97.71779 | 35969 ft | 487 kts | 266° |
| 2026-05-05 13:42 | 20.13063 | -97.78965 | 35975 ft | 486 kts | 261° |
| 2026-05-05 13:42 | 20.11323 | -97.85907 | 35994 ft | 485 kts | 252° |
| 2026-05-05 13:43 | 20.09344 | -97.92779 | 36008 ft | 485 kts | 253° |
| 2026-05-05 13:43 | 20.07414 | -97.99670 | 36031 ft | 487 kts | 252° |
| 2026-05-05 13:44 | 20.05440 | -98.06558 | 36050 ft | 487 kts | 252° |
| 2026-05-05 13:44 | 20.03485 | -98.13464 | 36069 ft | 488 kts | 252° |
| 2026-05-05 13:45 | 20.01646 | -98.20413 | 36093 ft | 489 kts | 257° |
| 2026-05-05 13:45 | 20.00257 | -98.27488 | 36094 ft | 488 kts | 257° |
| 2026-05-05 13:46 | 19.98820 | -98.34542 | 36104 ft | 488 kts | 257° |
| 2026-05-05 13:46 | 19.97398 | -98.41600 | 36109 ft | 488 kts | 257° |
| 2026-05-05 13:47 | 19.95970 | -98.48654 | 36113 ft | 488 kts | 257° |
| 2026-05-05 13:47 | 19.94537 | -98.55703 | 36116 ft | 488 kts | 257° |
| 2026-05-05 13:48 | 19.93103 | -98.62764 | 36118 ft | 489 kts | 257° |
| 2026-05-05 13:48 | 19.91660 | -98.69839 | 36135 ft | 491 kts | 257° |
| 2026-05-05 13:49 | 19.90458 | -98.76969 | 36193 ft | 491 kts | 262° |
| 2026-05-05 13:49 | 19.89711 | -98.84172 | 36242 ft | 490 kts | 263° |
| 2026-05-05 13:50 | 19.89098 | -98.91381 | 36292 ft | 491 kts | 272° |
| 2026-05-05 13:50 | 19.89604 | -98.98624 | 36315 ft | 492 kts | 274° |
| 2026-05-05 13:51 | 19.90093 | -99.05864 | 36308 ft | 491 kts | 273° |
| 2026-05-05 13:51 | 19.90564 | -99.13067 | 36271 ft | 493 kts | 274° |
| 2026-05-05 13:52 | 19.91059 | -99.20329 | 36222 ft | 493 kts | 273° |
| 2026-05-05 13:52 | 19.91479 | -99.27604 | 36165 ft | 493 kts | 268° |
| 2026-05-05 13:53 | 19.91127 | -99.31211 | 36148 ft | 492 kts | 256° |
| 2026-05-05 13:53 | 19.90293 | -99.34731 | 36118 ft | 491 kts | 254° |
| 2026-05-05 13:53 | 19.88507 | -99.41734 | 36123 ft | 490 kts | 255° |
| 2026-05-05 13:54 | 19.87467 | -99.45174 | 36141 ft | 490 kts | 244° |
| 2026-05-05 13:54 | 19.85821 | -99.48331 | 36140 ft | 489 kts | 233° |
| 2026-05-05 13:54 | 19.83618 | -99.51067 | 36151 ft | 488 kts | 221° |
| 2026-05-05 13:54 | 19.80943 | -99.53276 | 36155 ft | 487 kts | 210° |
| 2026-05-05 13:55 | 19.77912 | -99.54866 | 36161 ft | 487 kts | 198° |
| 2026-05-05 13:55 | 19.74647 | -99.55773 | 36162 ft | 486 kts | 187° |
| 2026-05-05 13:55 | 19.71276 | -99.55965 | 36170 ft | 486 kts | 175° |
| 2026-05-05 13:55 | 19.67934 | -99.55432 | 36192 ft | 486 kts | 164° |
| 2026-05-05 13:56 | 19.64762 | -99.54195 | 36228 ft | 487 kts | 153° |
| 2026-05-05 13:56 | 19.61885 | -99.52303 | 36258 ft | 488 kts | 141° |
| 2026-05-05 13:56 | 19.59424 | -99.49835 | 36281 ft | 487 kts | 129° |
| 2026-05-05 13:56 | 19.57482 | -99.46893 | 36290 ft | 488 kts | 118° |
| 2026-05-05 13:57 | 19.56134 | -99.43590 | 36288 ft | 489 kts | 107° |
| 2026-05-05 13:57 | 19.55434 | -99.40066 | 36279 ft | 490 kts | 96° |
| 2026-05-05 13:57 | 19.55183 | -99.33113 | 36210 ft | 490 kts | 92° |
| 2026-05-05 13:58 | 19.54798 | -99.29582 | 36245 ft | 489 kts | 104° |
| 2026-05-05 13:58 | 19.53734 | -99.26116 | 36273 ft | 488 kts | 116° |
| 2026-05-05 13:58 | 19.52102 | -99.23053 | 36288 ft | 478 kts | 127° |
| 2026-05-05 13:58 | 19.49956 | -99.20445 | 36310 ft | 462 kts | 139° |
| 2026-05-05 13:59 | 19.44609 | -99.17007 | 35734 ft | 447 kts | 162° |
| 2026-05-05 13:59 | 19.41600 | -99.16288 | 35384 ft | 441 kts | 175° |
| 2026-05-05 14:00 | 19.35631 | -99.15331 | 34685 ft | 430 kts | 158° |
| 2026-05-05 14:00 | 19.33807 | -99.14434 | 34455 ft | 427 kts | 149° |
| 2026-05-05 14:00 | 19.30769 | -99.11872 | 33957 ft | 421 kts | 131° |
| 2026-05-05 14:00 | 19.29088 | -99.09350 | 33585 ft | 418 kts | 118° |
| 2026-05-05 14:01 | 19.28025 | -99.06484 | 32963 ft | 421 kts | 103° |
| 2026-05-05 14:01 | 19.27659 | -99.03408 | 32381 ft | 423 kts | 89° |
| 2026-05-05 14:01 | 19.28015 | -99.00323 | 31829 ft | 425 kts | 75° |
| 2026-05-05 14:01 | 19.29074 | -98.97409 | 31290 ft | 426 kts | 60° |
| 2026-05-05 14:02 | 19.30565 | -98.94730 | 30584 ft | 420 kts | 61° |
| 2026-05-05 14:02 | 19.31925 | -98.91970 | 29417 ft | 424 kts | 65° |
| 2026-05-05 14:02 | 19.32946 | -98.89052 | 28299 ft | 424 kts | 78° |
| 2026-05-05 14:02 | 19.33380 | -98.85976 | 27249 ft | 423 kts | 83° |
| 2026-05-05 14:03 | 19.33731 | -98.82884 | 26209 ft | 422 kts | 82° |
| 2026-05-05 14:03 | 19.34078 | -98.79804 | 25208 ft | 421 kts | 82° |
| 2026-05-05 14:03 | 19.34801 | -98.76823 | 24259 ft | 416 kts | 64° |
| 2026-05-05 14:03 | 19.36342 | -98.74267 | 23263 ft | 411 kts | 46° |
| 2026-05-05 14:04 | 19.38547 | -98.72372 | 22217 ft | 408 kts | 28° |
| 2026-05-05 14:04 | 19.41155 | -98.71229 | 21205 ft | 406 kts | 17° |
| 2026-05-05 14:04 | 19.43944 | -98.70806 | 20218 ft | 408 kts | 359° |
| 2026-05-05 14:04 | 19.46704 | -98.71281 | 19285 ft | 409 kts | 345° |
| 2026-05-05 14:05 | 19.49295 | -98.72506 | 18351 ft | 411 kts | 329° |
| 2026-05-05 14:05 | 19.50875 | -98.73695 | 17623 ft | 411 kts | 323° |
| 2026-05-05 14:05 | 19.53052 | -98.75652 | 16563 ft | 410 kts | 319° |
| 2026-05-05 14:05 | 19.55805 | -98.78371 | 15241 ft | 406 kts | 317° |
| 2026-05-05 14:06 | 19.57838 | -98.80434 | 14272 ft | 403 kts | 317° |
| 2026-05-05 14:06 | 19.59148 | -98.81842 | 13928 ft | 391 kts | 309° |
| 2026-05-05 14:06 | 19.60513 | -98.84222 | 13690 ft | 368 kts | 291° |
| 2026-05-05 14:06 | 19.61084 | -98.86776 | 13430 ft | 348 kts | 272° |
| 2026-05-05 14:07 | 19.60823 | -98.89243 | 13153 ft | 330 kts | 251° |
| 2026-05-05 14:07 | 19.59910 | -98.91413 | 12865 ft | 320 kts | 241° |
| 2026-05-05 14:07 | 19.58834 | -98.93519 | 12603 ft | 332 kts | 243° |
| 2026-05-05 14:07 | 19.57868 | -98.95745 | 12373 ft | 334 kts | 249° |
| 2026-05-05 14:08 | 19.57239 | -98.98102 | 12147 ft | 331 kts | 259° |
| 2026-05-05 14:08 | 19.56885 | -99.00485 | 11930 ft | 320 kts | 263° |
| 2026-05-05 14:08 | 19.56603 | -99.02719 | 11720 ft | 299 kts | 261° |
| 2026-05-05 14:08 | 19.56227 | -99.04846 | 11462 ft | 282 kts | 258° |
| 2026-05-05 14:09 | 19.55820 | -99.06824 | 11183 ft | 269 kts | 258° |
| 2026-05-05 14:09 | 19.55453 | -99.08735 | 10891 ft | 260 kts | 259° |
| 2026-05-05 14:09 | 19.55123 | -99.10566 | 10600 ft | 253 kts | 259° |
| 2026-05-05 14:09 | 19.54792 | -99.12371 | 10313 ft | 247 kts | 259° |
| 2026-05-05 14:10 | 19.54464 | -99.14133 | 10009 ft | 241 kts | 259° |
| 2026-05-05 14:10 | 19.54140 | -99.15874 | 9975 ft | 243 kts | 259° |
| 2026-05-05 14:10 | 19.53814 | -99.17627 | 9968 ft | 242 kts | 259° |
| 2026-05-05 14:10 | 19.53486 | -99.19389 | 9956 ft | 244 kts | 259° |
| 2026-05-05 14:11 | 19.53135 | -99.21147 | 9932 ft | 244 kts | 254° |
| 2026-05-05 14:11 | 19.52259 | -99.22658 | 9919 ft | 237 kts | 223° |
| 2026-05-05 14:11 | 19.50879 | -99.23431 | 9809 ft | 218 kts | 193° |
| 2026-05-05 14:11 | 19.49386 | -99.23512 | 9537 ft | 212 kts | 177° |
| 2026-05-05 14:12 | 19.47934 | -99.23452 | 9531 ft | 211 kts | 178° |
| 2026-05-05 14:12 | 19.46462 | -99.23415 | 9540 ft | 211 kts | 179° |
| 2026-05-05 14:12 | 19.44993 | -99.23393 | 9546 ft | 211 kts | 179° |
| 2026-05-05 14:12 | 19.43525 | -99.23369 | 9546 ft | 211 kts | 179° |
| 2026-05-05 14:13 | 19.42055 | -99.23333 | 9547 ft | 212 kts | 176° |
| 2026-05-05 14:13 | 19.40687 | -99.22805 | 9450 ft | 211 kts | 138° |
| 2026-05-05 14:13 | 19.39844 | -99.21568 | 9577 ft | 208 kts | 116° |
| 2026-05-05 14:13 | 19.39187 | -99.20177 | 9573 ft | 209 kts | 116° |
| 2026-05-05 14:14 | 19.38499 | -99.18805 | 9422 ft | 210 kts | 118° |
| 2026-05-05 14:14 | 19.38066 | -99.17345 | 9203 ft | 211 kts | 87° |
| 2026-05-05 14:14 | 19.38485 | -99.15897 | 9071 ft | 206 kts | 58° |
| 2026-05-05 14:14 | 19.39276 | -99.14615 | 8949 ft | 209 kts | 56° |
| 2026-05-05 14:15 | 19.40099 | -99.13361 | 8700 ft | 204 kts | 54° |
| 2026-05-05 14:15 | 19.40905 | -99.12194 | 8393 ft | 188 kts | 53° |
| 2026-05-05 14:15 | 19.41693 | -99.11116 | 8513 ft | 187 kts | 51° |
| 2026-05-05 14:15 | 19.42482 | -99.10058 | 7891 ft | 188 kts | 54° |
| 2026-05-05 14:16 | 19.43125 | -99.08875 | 7497 ft | 178 kts | 66° |
| 2026-05-05 14:16 | 19.43651 | -99.07629 | 7907 ft | 185 kts | 65° |
| 2026-05-05 14:16 | 19.44155 | -99.06383 | 8598 ft | 188 kts | 72° |
| 2026-05-05 14:16 | 19.44316 | -99.04874 | 8606 ft | 221 kts | 94° |
| 2026-05-05 14:17 | 19.44100 | -99.03403 | 9075 ft | 190 kts | 102° |
| 2026-05-05 14:17 | 19.43841 | -99.01946 | 8585 ft | 223 kts | 100° |
| 2026-05-05 14:17 | 19.43399 | -99.00238 | 8773 ft | 245 kts | 122° |
| 2026-05-05 14:17 | 19.42331 | -98.98989 | 9786 ft | 222 kts | 142° |
| 2026-05-05 14:18 | 19.41024 | -98.98187 | 10394 ft | 218 kts | 161° |
| 2026-05-05 14:18 | 19.39447 | -98.97895 | 10343 ft | 244 kts | 185° |
| 2026-05-05 14:18 | 19.37854 | -98.98259 | 11118 ft | 214 kts | 200° |
| 2026-05-05 14:18 | 19.36557 | -98.98857 | 11600 ft | 206 kts | 207° |
| 2026-05-05 14:19 | 19.35262 | -98.99734 | 11562 ft | 232 kts | 216° |
| 2026-05-05 14:19 | 19.33967 | -99.00819 | 11746 ft | 244 kts | 221° |
| 2026-05-05 14:19 | 19.32775 | -99.02143 | 11810 ft | 252 kts | 230° |
| 2026-05-05 14:19 | 19.31691 | -99.03608 | 11925 ft | 252 kts | 232° |
| 2026-05-05 14:20 | 19.30643 | -99.05045 | 12268 ft | 242 kts | 232° |
| 2026-05-05 14:20 | 19.29632 | -99.06521 | 12141 ft | 255 kts | 236° |
| 2026-05-05 14:20 | 19.28697 | -99.08112 | 12274 ft | 249 kts | 244° |
| 2026-05-05 14:20 | 19.28144 | -99.09815 | 12404 ft | 243 kts | 256° |
| 2026-05-05 14:21 | 19.28039 | -99.11607 | 12113 ft | 253 kts | 278° |
| 2026-05-05 14:21 | 19.28524 | -99.13416 | 11889 ft | 254 kts | 292° |
| 2026-05-05 14:21 | 19.29409 | -99.14947 | 11925 ft | 242 kts | 315° |
| 2026-05-05 14:21 | 19.30751 | -99.16010 | 11549 ft | 240 kts | 331° |
| 2026-05-05 14:22 | 19.32234 | -99.16769 | 11213 ft | 234 kts | 338° |
| 2026-05-05 14:22 | 19.33764 | -99.17294 | 10741 ft | 233 kts | 351° |
| 2026-05-05 14:22 | 19.35396 | -99.17257 | 10142 ft | 239 kts | 17° |
| 2026-05-05 14:22 | 19.36810 | -99.16460 | 9918 ft | 220 kts | 36° |
| 2026-05-05 14:23 | 19.37924 | -99.15402 | 9415 ft | 215 kts | 44° |
| 2026-05-05 14:23 | 19.38982 | -99.14272 | 8861 ft | 216 kts | 51° |
| 2026-05-05 14:23 | 19.39922 | -99.13028 | 8044 ft | 215 kts | 52° |
| 2026-05-05 14:23 | 19.40720 | -99.11738 | 7618 ft | 199 kts | 54° |
| 2026-05-05 14:24 | 19.41453 | -99.10609 | 7458 ft | 179 kts | 53° |
| 2026-05-05 14:24 | 19.41725 | -99.10128 | 7326 ft | 0 kts | 160° |